createdAt,value
2023-04-01T00:04:27.186Z,7.26
2023-04-01T00:09:29.883Z,7.30
2023-04-01T00:14:31.973Z,7.34
2023-04-01T00:19:33.756Z,7.35
2023-04-01T00:24:35.702Z,7.33
2023-04-01T00:29:37.523Z,7.31
2023-04-01T00:34:40.859Z,7.34
2023-04-01T00:39:42.653Z,7.38
2023-04-01T00:44:51.527Z,7.42
2023-04-01T00:49:56.083Z,7.39
2023-04-01T00:55:02.112Z,7.39
2023-04-01T01:00:08.393Z,7.38
2023-04-01T01:05:14.956Z,7.34
2023-04-01T01:10:21.830Z,7.35
2023-04-01T01:15:28.258Z,7.34
2023-04-01T01:20:58.797Z,7.33
2023-04-01T01:26:06.768Z,7.31
2023-04-01T01:31:22.197Z,7.36
2023-04-01T01:36:30.002Z,7.36
2023-04-01T01:41:33.873Z,7.34
2023-04-01T01:46:37.328Z,7.33
2023-04-01T01:51:40.245Z,7.28
2023-04-01T01:56:49.946Z,7.31
2023-04-01T02:01:55.876Z,7.29
2023-04-01T02:07:03.679Z,7.27
2023-04-01T02:12:08.661Z,7.24
2023-04-01T02:17:28.898Z,7.25
2023-04-01T02:22:34.722Z,7.25
2023-04-01T02:27:37.211Z,7.33
2023-04-01T02:32:40.595Z,7.36
2023-04-01T02:37:43.779Z,7.42
2023-04-01T02:42:46.668Z,7.52
2023-04-01T02:47:48.550Z,7.54
2023-04-01T02:52:50.428Z,7.63
2023-04-01T02:57:52.327Z,7.69
2023-04-01T03:02:54.701Z,7.69
2023-04-01T03:07:57.017Z,7.69
2023-04-01T03:12:58.905Z,7.70
2023-04-01T03:18:01.478Z,7.59
2023-04-01T03:23:03.689Z,7.47
2023-04-01T03:28:05.914Z,7.36
2023-04-01T03:33:07.924Z,7.24
2023-04-01T03:38:09.830Z,7.16
2023-04-01T03:43:12.378Z,7.13
2023-04-01T03:48:18.116Z,7.11
2023-04-01T03:53:20.242Z,7.08
2023-04-01T03:58:22.916Z,7.09
2023-04-01T04:03:26.261Z,6.99
2023-04-01T04:08:28.228Z,6.94
2023-04-01T04:13:30.250Z,6.91
2023-04-01T04:18:37.313Z,6.91
2023-04-01T04:23:39.310Z,6.87
2023-04-01T04:28:41.653Z,6.95
2023-04-01T04:33:43.842Z,6.91
2023-04-01T04:38:46.098Z,6.90
2023-04-01T04:43:56.424Z,6.93
2023-04-01T04:48:59.917Z,6.92
2023-04-01T04:54:01.903Z,6.93
2023-04-01T04:59:17.389Z,6.93
2023-04-01T05:04:26.629Z,6.97
2023-04-01T05:09:28.584Z,7.03
2023-04-01T05:14:30.552Z,7.09
2023-04-01T05:19:42.753Z,7.11
2023-04-01T05:24:44.711Z,7.14
2023-04-01T05:29:47.664Z,7.17
2023-04-01T05:35:21.725Z,7.28
2023-04-01T05:40:23.726Z,7.36
2023-04-01T05:45:25.664Z,7.47
2023-04-01T05:50:45.761Z,7.61
2023-04-01T05:55:47.616Z,7.75
2023-04-01T06:00:59.070Z,7.84
2023-04-01T06:06:16.764Z,7.82
2023-04-01T06:11:40.028Z,7.77
2023-04-01T06:17:02.781Z,7.86
2023-04-01T06:22:33.767Z,7.96
2023-04-01T06:28:09.953Z,8.18
2023-04-01T06:33:31.361Z,8.40
2023-04-01T06:38:54.706Z,8.32
2023-04-01T06:44:15.160Z,8.08
2023-04-01T06:49:53.849Z,8.12
2023-04-01T06:55:29.517Z,8.22
2023-04-01T07:00:57.484Z,8.32
2023-04-01T07:06:05.572Z,8.40
2023-04-01T07:11:18.714Z,8.44
2023-04-01T07:16:51.240Z,8.54
2023-04-01T07:21:57.574Z,8.54
2023-04-01T07:27:13.240Z,8.71
2023-04-01T07:32:22.170Z,8.58
2023-04-01T07:37:40.363Z,8.47
2023-04-01T07:43:01.331Z,8.59
2023-04-01T07:48:10.700Z,8.59
2023-04-01T07:53:32.402Z,8.65
2023-04-01T07:58:51.159Z,8.82
2023-04-01T08:04:25.854Z,9.02
2023-04-01T08:09:45.997Z,9.10
2023-04-01T08:15:28.707Z,8.81
2023-04-01T08:20:51.480Z,9.23
2023-04-01T08:26:09.669Z,9.59
2023-04-01T08:31:46.720Z,9.40
2023-04-01T08:36:59.847Z,9.33
2023-04-01T08:42:28.765Z,9.84
2023-04-01T08:48:16.128Z,10.09
2023-04-01T08:53:46.475Z,9.74
2023-04-01T08:59:02.869Z,9.80
2023-04-01T09:04:25.445Z,9.89
2023-04-01T09:09:46.597Z,10.16
2023-04-01T09:15:20.828Z,10.24
2023-04-01T09:20:31.552Z,10.25
2023-04-01T09:25:52.728Z,10.39
2023-04-01T09:31:06.734Z,10.61
2023-04-01T09:36:23.969Z,10.46
2023-04-01T09:41:30.316Z,10.24
2023-04-01T09:47:11.163Z,10.15
2023-04-01T09:52:27.803Z,10.43
2023-04-01T09:57:59.616Z,10.29
2023-04-01T10:04:21.582Z,9.79
2023-04-01T10:09:41.962Z,9.93
2023-04-01T10:15:16.166Z,10.11
2023-04-01T10:20:55.209Z,9.97
2023-04-01T10:26:31.066Z,10.05
2023-04-01T10:32:18.996Z,10.32
2023-04-01T10:37:33.742Z,10.37
2023-04-01T10:42:45.296Z,10.37
2023-04-01T10:48:19.536Z,10.62
2023-04-01T10:53:59.272Z,10.95
2023-04-01T10:59:33.652Z,10.82
2023-04-01T11:05:41.246Z,10.62
2023-04-01T11:11:26.742Z,10.46
2023-04-01T11:16:56.859Z,10.43
2023-04-01T11:22:23.061Z,10.39
2023-04-01T11:27:49.968Z,10.37
2023-04-01T11:33:22.007Z,10.40
2023-04-01T11:38:41.781Z,10.63
2023-04-01T11:44:20.560Z,10.75
2023-04-01T11:49:56.674Z,11.10
2023-04-01T11:55:21.343Z,11.01
2023-04-01T12:01:04.180Z,11.26
2023-04-01T12:06:30.762Z,10.94
2023-04-01T12:12:10.025Z,10.62
2023-04-01T12:17:36.644Z,10.17
2023-04-01T12:22:54.804Z,10.40
2023-04-01T12:28:32.526Z,10.07
2023-04-01T12:34:13.410Z,9.46
2023-04-01T12:39:40.327Z,9.20
2023-04-01T12:45:13.921Z,8.76
2023-04-01T12:50:42.493Z,8.46
2023-04-01T12:55:51.742Z,8.52
2023-04-01T13:01:11.739Z,8.84
2023-04-01T13:06:57.985Z,9.66
2023-04-01T13:12:08.605Z,11.80
2023-04-01T13:17:22.452Z,12.50
2023-04-01T13:22:54.850Z,11.03
2023-04-01T13:28:26.907Z,10.03
2023-04-01T13:33:45.689Z,10.12
2023-04-01T13:39:24.906Z,10.35
2023-04-01T13:44:36.161Z,10.25
2023-04-01T13:50:06.233Z,9.99
2023-04-01T13:55:29.605Z,9.77
2023-04-01T14:00:48.618Z,9.63
2023-04-01T14:06:32.159Z,9.54
2023-04-01T14:11:46.329Z,9.43
2023-04-01T14:17:04.187Z,9.27
2023-04-01T14:22:41.209Z,9.13
2023-04-01T14:28:01.266Z,9.22
2023-04-01T14:33:18.532Z,9.32
2023-04-01T14:38:26.298Z,9.33
2023-04-01T14:43:54.125Z,9.18
2023-04-01T14:49:24.020Z,9.07
2023-04-01T14:54:37.577Z,9.26
2023-04-01T14:59:49.770Z,9.76
2023-04-01T15:05:08.340Z,10.32
2023-04-01T15:10:25.233Z,10.25
2023-04-01T15:15:36.482Z,9.95
2023-04-01T15:21:19.059Z,9.90
2023-04-01T15:26:42.325Z,10.43
2023-04-01T15:31:59.015Z,10.69
2023-04-01T15:37:29.344Z,10.14
2023-04-01T15:43:05.362Z,10.07
2023-04-01T15:48:14.852Z,10.07
2023-04-01T15:53:22.434Z,10.07
2023-04-01T15:58:45.971Z,10.19
2023-04-01T16:04:21.959Z,10.25
2023-04-01T16:09:58.959Z,10.23
2023-04-01T16:15:18.713Z,10.12
2023-04-01T16:20:35.851Z,10.09
2023-04-01T16:25:42.958Z,10.03
2023-04-01T16:30:57.087Z,10.04
2023-04-01T16:36:34.971Z,10.02
2023-04-01T16:41:47.429Z,9.90
2023-04-01T16:46:54.367Z,9.85
2023-04-01T16:52:14.762Z,9.80
2023-04-01T16:57:24.148Z,9.68
2023-04-01T17:02:35.796Z,9.50
2023-04-01T17:07:47.863Z,9.39
2023-04-01T17:13:14.426Z,9.32
2023-04-01T17:18:35.676Z,9.20
2023-04-01T17:23:40.846Z,9.10
2023-04-01T17:28:48.642Z,9.08
2023-04-01T17:34:28.193Z,9.10
2023-04-01T17:39:40.410Z,9.01
2023-04-01T17:45:23.968Z,8.91
2023-04-01T17:50:48.724Z,8.86
2023-04-01T17:56:25.785Z,8.83
2023-04-01T18:01:48.730Z,8.67
2023-04-01T18:06:53.244Z,8.56
2023-04-01T18:12:21.084Z,8.57
2023-04-01T18:17:27.567Z,8.50
2023-04-01T18:22:34.927Z,8.31
2023-04-01T18:27:43.742Z,8.31
2023-04-01T18:32:54.897Z,8.18
2023-04-01T18:38:13.850Z,8.25
2023-04-01T18:43:51.325Z,8.29
2023-04-01T18:49:25.417Z,8.32
2023-04-01T18:55:02.232Z,8.30
2023-04-01T19:00:08.415Z,8.09
2023-04-01T19:05:14.994Z,7.90
2023-04-01T19:10:18.719Z,7.78
2023-04-01T19:15:20.950Z,7.68
2023-04-01T19:21:07.850Z,7.55
2023-04-01T19:26:24.509Z,7.38
2023-04-01T19:31:45.883Z,7.25
2023-04-01T19:36:57.070Z,7.20
2023-04-01T19:42:22.013Z,7.24
2023-04-01T19:47:50.696Z,7.30
2023-04-01T19:52:55.979Z,7.38
2023-04-01T19:58:27.238Z,7.45
2023-04-01T20:03:34.964Z,7.52
2023-04-01T20:09:05.925Z,7.48
2023-04-01T20:14:27.385Z,7.47
2023-04-01T20:19:36.184Z,7.47
2023-04-01T20:24:47.656Z,7.80
2023-04-01T20:30:06.675Z,7.73
2023-04-01T20:35:17.418Z,7.59
2023-04-01T20:40:33.396Z,7.47
2023-04-01T20:45:48.366Z,7.42
2023-04-01T20:51:00.017Z,7.48
2023-04-01T20:56:13.594Z,7.51
2023-04-01T21:01:46.107Z,7.55
2023-04-01T21:07:01.350Z,7.50
2023-04-01T21:12:12.113Z,7.43
2023-04-01T21:17:31.658Z,7.43
2023-04-01T21:23:01.677Z,7.40
2023-04-01T21:28:23.417Z,7.42
2023-04-01T21:33:31.278Z,7.39
2023-04-01T21:38:50.681Z,7.36
2023-04-01T21:44:19.648Z,7.35
2023-04-01T21:49:55.283Z,7.33
2023-04-01T21:55:24.122Z,7.39
2023-04-01T22:00:33.779Z,7.42
2023-04-01T22:05:52.281Z,7.44
2023-04-01T22:11:05.573Z,7.50
2023-04-01T22:16:35.606Z,7.54
2023-04-01T22:21:53.110Z,7.51
2023-04-01T22:26:58.792Z,7.46
2023-04-01T22:32:14.372Z,7.48
2023-04-01T22:37:23.955Z,7.52
2023-04-01T22:42:45.563Z,7.43
2023-04-01T22:48:02.713Z,7.38
2023-04-01T22:53:35.040Z,7.37
2023-04-01T22:58:48.287Z,7.34
2023-04-01T23:03:52.564Z,7.31
2023-04-01T23:09:05.991Z,7.27
2023-04-01T23:14:30.021Z,7.22
2023-04-01T23:20:06.831Z,7.06
2023-04-01T23:25:36.801Z,6.92
2023-04-01T23:30:41.565Z,6.90
2023-04-01T23:36:08.239Z,6.83
2023-04-01T23:41:31.755Z,6.71
2023-04-01T23:46:35.891Z,6.67
2023-04-01T23:51:40.507Z,6.61
2023-04-01T23:56:46.422Z,6.39
